Time;durP1;ratioP1;P1;durP2;ratioP2;P2;SDS_P1;SDS_P2;PMS_P1;PMS_P2;Temp;Humidity;BMP_temperature;BMP_pressure;BME280_temperature;BME280_humidity;BME280_pressure;Samples;Min_cycle;Max_cycle;Signal;HPM_P1;HPM_P2
2022/11/08 00:01:33;;;;;;;;;5.00;4.75;;;;;14.18;78.06;100558.56;5031742;27;45461;-69
2022/11/08 00:04:04;;;;;;;;;9.25;5.75;;;;;14.07;77.73;100548.69;5032157;27;45455;-69
2022/11/08 00:14:43;;;;;;;;;6.00;4.75;;;;;13.89;77.74;100517.94;5032539;28;45367;-69
2022/11/08 00:17:09;;;;;;;;;4.75;3.75;;;;;13.75;77.80;100497.53;5031700;28;45421;-68
2022/11/08 00:19:34;;;;;;;;;7.25;4.50;;;;;14.03;77.83;100536.47;5032234;28;45459;-69
2022/11/08 00:22:00;;;;;;;;;6.00;6.00;;;;;13.93;77.70;100511.38;5031659;28;45575;-67
2022/11/08 00:24:25;;;;;;;;;4.75;4.75;;;;;13.38;77.48;100428.84;5031689;27;45307;-69
2022/11/08 00:26:50;;;;;;;;;9.25;5.50;;;;;13.59;77.39;100445.13;5031837;27;46264;-68
2022/11/08 00:29:16;;;;;;;;;6.00;6.00;;;;;13.99;77.22;100513.56;5031828;28;45322;-68
2022/11/08 00:31:42;;;;;;;;;5.00;5.00;;;;;13.76;77.35;100475.97;5032102;28;45297;-68
2022/11/08 00:34:08;;;;;;;;;5.50;5.50;;;;;13.76;77.29;100473.28;5031158;28;45418;-67
2022/11/08 00:36:33;;;;;;;;;4.25;4.25;;;;;13.55;77.21;100443.66;5031181;28;45580;-67
2022/11/08 00:38:58;;;;;;;;;8.25;5.50;;;;;13.95;76.86;100485.28;5030574;28;45411;-66
2022/11/08 00:41:24;;;;;;;;;7.50;5.75;;;;;13.77;76.97;100460.75;5032106;27;45354;-68
2022/11/08 00:43:49;;;;;;;;;6.25;6.25;;;;;13.84;77.42;100461.97;5032253;28;45317;-68
2022/11/08 00:46:14;;;;;;;;;2.25;1.50;;;;;13.78;77.16;100452.59;5031714;27;46399;-67
2022/11/08 00:48:40;;;;;;;;;6.00;4.25;;;;;13.69;77.03;100442.56;5025444;27;45401;-66
2022/11/08 00:51:08;;;;;;;;;4.25;3.50;;;;;13.76;76.96;100438.44;5019743;28;45518;-67
2022/11/08 00:53:37;;;;;;;;;5.50;4.50;;;;;13.79;76.79;100442.72;5011616;28;45472;-67
2022/11/08 00:56:04;;;;;;;;;4.75;3.00;;;;;13.79;76.84;100448.94;5015301;28;45234;-67
2022/11/08 00:58:30;;;;;;;;;5.50;5.50;;;;;13.65;76.63;100425.03;5013321;28;46120;-67
2022/11/08 01:00:56;;;;;;;;;4.50;4.50;;;;;13.79;76.43;100459.66;5031020;28;45403;-68
2022/11/08 01:03:22;;;;;;;;;5.00;4.00;;;;;13.73;76.39;100435.16;5031983;27;45296;-68
2022/11/08 01:05:50;;;;;;;;;5.25;5.25;;;;;13.56;76.10;100393.56;5031674;28;46612;-68
2022/11/08 01:08:16;;;;;;;;;2.50;2.00;;;;;13.73;76.12;100438.69;5020440;28;45593;-68
2022/11/08 01:10:47;;;;;;;;;4.00;4.00;;;;;13.71;75.98;100445.13;5010561;28;45356;-68
2022/11/08 01:13:14;;;;;;;;;4.00;3.75;;;;;13.20;75.69;100355.22;5022372;28;45580;-69
2022/11/08 01:15:41;;;;;;;;;5.25;4.25;;;;;13.50;75.66;100407.47;5013376;28;47215;-68
2022/11/08 01:18:08;;;;;;;;;4.50;3.00;;;;;13.71;75.78;100437.09;5029970;28;45763;-68
2022/11/08 01:20:38;;;;;;;;;3.75;3.50;;;;;13.72;75.57;100434.28;5031600;28;45391;-69
2022/11/08 01:23:04;;;;;;;;;5.25;4.50;;;;;13.71;75.52;100435.28;5031687;28;45355;-68
2022/11/08 01:25:29;;;;;;;;;4.00;3.75;;;;;13.67;75.47;100433.81;5031477;28;46286;-68
2022/11/08 01:27:54;;;;;;;;;4.50;4.50;;;;;13.68;75.17;100424.78;5031458;27;45326;-68
2022/11/08 01:30:20;;;;;;;;;3.75;3.75;;;;;13.57;75.51;100414.88;5014083;27;45358;-69
2022/11/08 01:32:45;;;;;;;;;4.50;4.50;;;;;13.61;75.26;100427.06;5031841;28;45557;-68
2022/11/08 01:35:10;;;;;;;;;5.25;3.50;;;;;13.30;75.13;100381.16;5013460;28;45373;-68
2022/11/08 01:37:36;;;;;;;;;5.00;3.00;;;;;13.53;75.15;100413.41;5031424;28;45374;-68
2022/11/08 01:40:02;;;;;;;;;3.00;3.00;;;;;13.29;75.18;100382.16;5031187;28;45351;-68
2022/11/08 01:42:28;;;;;;;;;4.00;3.00;;;;;13.25;75.13;100379.81;5030825;28;45506;-69
2022/11/08 01:45:04;;;;;;;;;3.50;3.00;;;;;13.55;75.05;100418.66;5031463;28;46160;-68
2022/11/08 01:47:29;;;;;;;;;4.00;3.75;;;;;13.54;75.04;100422.31;5031230;28;45485;-68
2022/11/08 01:50:00;;;;;;;;;2.75;2.75;;;;;13.52;74.81;100406.34;5030723;28;45478;-68
2022/11/08 01:52:31;;;;;;;;;4.25;4.25;;;;;13.50;74.87;100404.78;5030996;28;45593;-68
2022/11/08 01:55:21;;;;;;;;;3.50;3.50;;;;;13.52;75.09;100403.66;5030567;28;47096;-69
2022/11/08 01:58:02;;;;;;;;;3.50;3.50;;;;;13.42;74.86;100389.28;5029914;28;45378;-68
2022/11/08 02:00:27;;;;;;;;;5.50;4.00;;;;;13.46;74.54;100401.47;5030425;28;45384;-68
2022/11/08 02:02:58;;;;;;;;;3.75;2.25;;;;;13.44;74.57;100384.66;5031255;27;45416;-68
2022/11/08 02:05:25;;;;;;;;;1.25;1.00;;;;;13.42;74.91;100382.09;5030924;28;45324;-68
2022/11/08 02:08:08;;;;;;;;;5.25;3.75;;;;;13.28;74.29;100363.50;5022155;28;45335;-69
2022/11/08 02:10:39;;;;;;;;;4.00;3.00;;;;;13.44;73.83;100377.47;5023601;28;45334;-68
2022/11/08 02:13:12;;;;;;;;;3.75;3.75;;;;;13.39;74.12;100376.97;5022406;27;45500;-68
2022/11/08 02:15:38;;;;;;;;;8.50;6.00;;;;;13.32;74.28;100356.97;5025658;28;46306;-68
2022/11/08 02:18:04;;;;;;;;;3.75;2.00;;;;;13.37;74.00;100364.66;5030507;28;45401;-68
2022/11/08 02:20:31;;;;;;;;;5.50;5.00;;;;;13.31;73.99;100355.25;5025795;28;45715;-68
2022/11/08 02:23:19;;;;;;;;;2.50;2.00;;;;;13.23;73.69;100322.84;5032810;28;45378;-68
2022/11/08 02:25:45;;;;;;;;;4.75;3.75;;;;;13.33;73.59;100339.91;5034368;28;46621;-68
2022/11/08 02:28:11;;;;;;;;;4.25;4.25;;;;;12.98;73.58;100279.19;5033928;28;45340;-68
2022/11/08 02:30:37;;;;;;;;;4.00;4.00;;;;;13.29;73.50;100315.19;5033721;28;45554;-68
2022/11/08 02:33:20;;;;;;;;;5.50;4.50;;;;;13.29;73.60;100311.66;5033521;28;45441;-68
2022/11/08 02:35:49;;;;;;;;;4.00;3.00;;;;;13.14;72.99;100281.56;5033957;28;45636;-68
2022/11/08 02:38:15;;;;;;;;;4.50;3.25;;;;;13.08;72.96;100260.63;5033823;28;45348;-68
2022/11/08 02:40:55;;;;;;;;;4.75;4.00;;;;;12.99;72.60;100267.53;5033884;28;45481;-69
2022/11/08 02:43:22;;;;;;;;;3.50;3.50;;;;;13.29;72.75;100307.16;5034252;27;45397;-68
2022/11/08 02:45:48;;;;;;;;;3.25;2.50;;;;;13.30;72.37;100308.00;5033913;27;45564;-68
2022/11/08 02:48:15;;;;;;;;;2.00;2.00;;;;;13.30;72.61;100308.00;5032615;28;45526;-68
2022/11/08 02:50:41;;;;;;;;;3.00;3.00;;;;;13.24;72.66;100289.72;5030593;27;45375;-68
2022/11/08 02:53:07;;;;;;;;;5.00;4.00;;;;;13.36;72.27;100302.22;5033770;28;45405;-68
2022/11/08 02:55:33;;;;;;;;;3.00;3.00;;;;;13.15;71.78;100269.88;5033684;28;46383;-68
2022/11/08 02:57:59;;;;;;;;;3.25;3.25;;;;;13.06;71.43;100254.53;5033692;28;45398;-69
2022/11/08 03:00:25;;;;;;;;;2.25;2.25;;;;;13.12;71.56;100268.28;5032308;27;45673;-68
2022/11/08 03:02:54;;;;;;;;;4.00;4.00;;;;;13.29;71.70;100282.19;5033938;28;45276;-69
2022/11/08 03:05:20;;;;;;;;;4.75;2.00;;;;;13.35;71.52;100311.19;5033327;28;46312;-68
2022/11/08 03:07:46;;;;;;;;;3.00;2.00;;;;;13.29;71.41;100295.56;5033267;28;45546;-68
2022/11/08 03:10:13;;;;;;;;;3.00;3.00;;;;;13.35;71.31;100311.19;5033260;28;45453;-67
2022/11/08 03:12:39;;;;;;;;;3.75;3.75;;;;;13.19;71.19;100278.53;5033201;28;45443;-68
2022/11/08 03:15:07;;;;;;;;;4.00;2.75;;;;;13.48;71.15;100329.00;5032740;28;46070;-68
2022/11/08 03:17:33;;;;;;;;;4.00;3.00;;;;;13.49;70.46;100322.69;5033283;28;45324;-68
2022/11/08 03:19:58;;;;;;;;;2.25;2.25;;;;;13.53;70.20;100335.72;5033289;28;45297;-68
2022/11/08 03:22:24;;;;;;;;;3.75;3.75;;;;;13.33;70.51;100270.25;5033141;28;45303;-68
2022/11/08 03:24:49;;;;;;;;;1.50;1.50;;;;;13.29;70.10;100258.06;5032866;28;45373;-68
2022/11/08 03:27:17;;;;;;;;;1.75;1.75;;;;;13.52;69.90;100295.63;5033400;27;45763;-68
2022/11/08 03:29:45;;;;;;;;;2.50;2.50;;;;;13.55;70.02;100296.25;5033509;28;45310;-68
2022/11/08 03:32:12;;;;;;;;;2.75;2.75;;;;;13.62;70.44;100310.88;5033413;28;45620;-68
2022/11/08 03:34:38;;;;;;;;;2.00;2.00;;;;;13.46;70.39;100271.03;5032728;28;45825;-68
2022/11/08 03:37:04;;;;;;;;;3.75;2.50;;;;;13.70;69.94;100307.59;5014928;27;45450;-68
2022/11/08 03:39:30;;;;;;;;;2.50;2.50;;;;;13.70;69.86;100299.53;5033115;28;45443;-68
2022/11/08 03:41:55;;;;;;;;;2.00;2.00;;;;;13.69;69.58;100297.84;5033205;28;45486;-68
2022/11/08 03:44:21;;;;;;;;;3.25;3.00;;;;;13.56;70.01;100278.34;5031361;28;47300;-68
2022/11/08 03:46:46;;;;;;;;;3.00;2.00;;;;;13.45;68.96;100269.31;5032983;28;45436;-68
2022/11/08 03:49:11;;;;;;;;;3.00;3.00;;;;;13.51;68.66;100288.56;5033275;28;45347;-67
2022/11/08 03:51:37;;;;;;;;;3.50;3.00;;;;;13.54;68.72;100299.06;5033144;28;45402;-67
2022/11/08 03:54:02;;;;;;;;;4.50;3.50;;;;;13.56;68.60;100286.38;5014128;28;47388;-67
2022/11/08 03:56:28;;;;;;;;;3.75;2.50;;;;;13.62;68.20;100283.22;5014145;28;45438;-67
2022/11/08 03:58:53;;;;;;;;;3.50;3.25;;;;;13.49;68.12;100275.28;5032922;28;45339;-67
2022/11/08 04:01:18;;;;;;;;;1.00;1.00;;;;;13.59;67.55;100292.34;5032612;28;45477;-66
2022/11/08 04:03:44;;;;;;;;;3.00;3.00;;;;;13.57;68.02;100286.25;5032880;28;45496;-67
2022/11/08 04:06:09;;;;;;;;;2.00;2.00;;;;;13.56;68.25;100281.03;5031640;27;45429;-67
2022/11/08 04:08:34;;;;;;;;;1.00;1.00;;;;;13.51;67.62;100269.81;5032295;28;45376;-67
2022/11/08 04:16:31;;;;;;;;;2.00;1.50;;;;;13.74;67.63;100302.81;5031327;28;45832;-67
2022/11/08 04:21:43;;;;;;;;;2.00;2.00;;;;;13.10;67.27;100189.03;5032315;28;45288;-67
2022/11/08 04:24:08;;;;;;;;;4.00;1.50;;;;;13.59;66.96;100272.72;5031847;28;45503;-67
2022/11/08 04:26:34;;;;;;;;;2.50;2.50;;;;;13.74;66.40;100287.59;5032379;28;45364;-67
2022/11/08 04:29:02;;;;;;;;;1.00;1.00;;;;;13.70;66.77;100280.78;5032218;28;45339;-67
2022/11/08 04:31:27;;;;;;;;;2.00;1.00;;;;;13.83;67.05;100303.94;5031168;28;45582;-66
2022/11/08 04:33:53;;;;;;;;;0.25;0.25;;;;;13.22;66.67;100200.63;5032214;28;45582;-66
2022/11/08 04:36:18;;;;;;;;;3.00;1.50;;;;;13.74;66.77;100287.59;5032634;27;45344;-67
2022/11/08 04:38:48;;;;;;;;;4.00;1.00;;;;;13.51;66.20;100245.69;5032357;28;45308;-66
2022/11/08 04:41:14;;;;;;;;;2.00;2.00;;;;;13.79;66.69;100290.78;5013989;28;45428;-66
2022/11/08 04:43:41;;;;;;;;;2.75;2.75;;;;;13.84;66.91;100303.78;5030801;28;46399;-66
2022/11/08 04:46:09;;;;;;;;;1.75;1.00;;;;;13.85;66.62;100300.16;5031016;27;45454;-67
2022/11/08 04:48:35;;;;;;;;;2.25;2.25;;;;;13.83;66.17;100288.69;5031376;28;45494;-67
2022/11/08 04:51:02;;;;;;;;;2.00;2.00;;;;;13.84;66.27;100300.28;5032152;28;45328;-67
2022/11/08 04:53:28;;;;;;;;;2.25;2.25;;;;;13.86;66.24;100301.88;5031919;27;45386;-67
2022/11/08 04:56:05;;;;;;;;;1.25;1.25;;;;;13.87;66.65;100298.19;5031998;28;45314;-67
2022/11/08 04:58:38;;;;;;;;;1.00;1.00;;;;;13.82;66.55;100286.13;5032306;28;45455;-67
2022/11/08 05:01:05;;;;;;;;;2.00;2.00;;;;;13.85;66.85;100293.91;5030525;27;45523;-67
2022/11/08 05:03:31;;;;;;;;;1.75;1.75;;;;;13.76;66.00;100280.28;5030933;27;45401;-68
2022/11/08 05:06:05;;;;;;;;;3.50;2.25;;;;;13.84;66.03;100266.25;5031899;27;45384;-67
2022/11/08 05:08:32;;;;;;;;;3.00;2.25;;;;;13.84;66.17;100262.75;5031449;28;45465;-67
2022/11/08 05:11:02;;;;;;;;;2.25;2.25;;;;;13.77;66.00;100265.06;5031754;27;45517;-67
2022/11/08 05:13:28;;;;;;;;;1.25;1.25;;;;;13.73;66.59;100269.81;5031792;27;45341;-67
2022/11/08 05:15:54;;;;;;;;;3.00;3.00;;;;;13.56;66.46;100249.69;5031535;28;45283;-67
2022/11/08 05:18:19;;;;;;;;;2.00;2.00;;;;;13.69;66.18;100271.03;5031864;28;45381;-67
2022/11/08 05:23:28;;;;;;;;;2.00;2.00;;;;;13.30;66.43;100190.16;5031801;28;45657;-67
2022/11/08 05:25:56;;;;;;;;;1.00;1.00;;;;;13.64;66.66;100243.75;5031646;28;45488;-67
2022/11/08 05:28:22;;;;;;;;;1.00;1.00;;;;;13.87;65.97;100278.56;5032026;28;45329;-67
2022/11/08 05:30:52;;;;;;;;;2.75;2.75;;;;;13.75;66.71;100273.22;5013707;28;45296;-67
2022/11/08 05:33:17;;;;;;;;;3.00;2.00;;;;;13.79;66.34;100281.84;5030244;28;45397;-67
2022/11/08 05:35:43;;;;;;;;;2.00;2.00;;;;;13.86;65.97;100299.19;5031056;28;45567;-67
2022/11/08 05:38:08;;;;;;;;;0.00;0.00;;;;;13.75;66.19;100275.03;5032022;28;45437;-67
2022/11/08 05:40:33;;;;;;;;;2.00;1.00;;;;;13.73;65.92;100274.34;5031432;28;45317;-67
2022/11/08 05:42:59;;;;;;;;;1.25;1.25;;;;;13.70;66.28;100267.38;5031531;28;45575;-67
2022/11/08 05:45:24;;;;;;;;;3.25;2.00;;;;;13.86;66.42;100298.31;5031568;28;45406;-67
2022/11/08 05:47:50;;;;;;;;;1.50;1.50;;;;;13.58;66.25;100246.94;5031859;27;45371;-67
2022/11/08 05:50:15;;;;;;;;;2.00;2.00;;;;;13.75;66.06;100269.69;5030865;28;45497;-67
2022/11/08 05:52:41;;;;;;;;;3.00;2.00;;;;;13.86;65.91;100288.47;5029062;27;45935;-66
2022/11/08 05:55:07;;;;;;;;;2.00;2.00;;;;;13.49;65.81;100227.06;5013380;28;45382;-68
2022/11/08 05:57:32;;;;;;;;;2.00;2.00;;;;;13.83;66.52;100274.44;5030849;28;45255;-67
2022/11/08 05:59:57;;;;;;;;;2.25;2.25;;;;;13.87;66.36;100275.88;5031175;28;45350;-66
2022/11/08 06:02:23;;;;;;;;;2.00;2.00;;;;;13.84;66.04;100274.31;5030736;28;45351;-66
2022/11/08 06:04:48;;;;;;;;;2.50;2.50;;;;;13.86;66.19;100284.91;5030808;27;45463;-67
2022/11/08 06:07:14;;;;;;;;;2.25;2.25;;;;;13.72;66.01;100260.06;5030754;28;45233;-67
2022/11/08 06:09:39;;;;;;;;;3.00;3.00;;;;;13.35;66.02;100187.94;5030830;28;45400;-67
2022/11/08 06:12:05;;;;;;;;;1.50;1.50;;;;;13.91;66.17;100280.03;5012889;28;48129;-67
2022/11/08 06:14:31;;;;;;;;;4.25;3.00;;;;;13.88;66.22;100274.91;5030970;27;45269;-67
2022/11/08 06:16:56;;;;;;;;;2.00;2.00;;;;;13.77;66.06;100267.75;5031088;28;45393;-67
2022/11/08 06:19:22;;;;;;;;;2.75;2.75;;;;;13.64;66.37;100251.78;5030508;28;45571;-67
2022/11/08 06:21:47;;;;;;;;;1.00;1.00;;;;;13.88;66.62;100291.00;5030458;28;46314;-67
2022/11/08 06:24:15;;;;;;;;;1.50;1.50;;;;;13.67;66.13;100251.56;5030321;28;45451;-66
2022/11/08 06:26:40;;;;;;;;;3.00;2.00;;;;;13.68;66.14;100241.69;5030278;28;45387;-66
2022/11/08 06:29:05;;;;;;;;;4.50;3.00;;;;;13.76;66.43;100272.22;5030376;28;45396;-66
2022/11/08 06:31:31;;;;;;;;;1.50;1.50;;;;;13.76;66.52;100282.13;5030881;28;46611;-66
2022/11/08 06:33:56;;;;;;;;;1.00;1.00;;;;;13.73;66.40;100271.66;5030720;28;45345;-67
2022/11/08 06:36:21;;;;;;;;;1.50;1.00;;;;;13.65;66.10;100268.72;5013120;28;45366;-68
2022/11/08 06:38:47;;;;;;;;;2.25;2.25;;;;;13.68;66.58;100263.97;5021641;28;47070;-67
2022/11/08 06:41:18;;;;;;;;;1.00;1.00;;;;;13.60;66.29;100258.34;5021123;28;47095;-67
2022/11/08 06:43:43;;;;;;;;;1.00;1.00;;;;;13.84;66.24;100297.59;5009254;28;45384;-69
2022/11/08 06:46:09;;;;;;;;;2.00;2.00;;;;;13.71;65.83;100313.78;5010745;28;45322;-67
2022/11/08 06:48:34;;;;;;;;;2.00;1.00;;;;;13.84;66.22;100325.25;5007546;28;45440;-66
2022/11/08 06:51:00;;;;;;;;;0.00;0.00;;;;;13.78;66.04;100318.53;5030092;28;46309;-67
2022/11/08 06:53:25;;;;;;;;;3.00;2.00;;;;;13.77;66.05;100306.13;5029778;27;45362;-67
2022/11/08 06:55:51;;;;;;;;;2.25;1.75;;;;;13.55;66.18;100263.22;5030114;28;45352;-67
2022/11/08 06:58:16;;;;;;;;;2.00;2.00;;;;;13.65;66.23;100285.66;5030546;28;45451;-67
2022/11/08 07:00:41;;;;;;;;;2.25;2.25;;;;;13.80;67.08;100316.59;5029887;27;46128;-67
2022/11/08 07:03:08;;;;;;;;;2.50;1.25;;;;;13.78;66.16;100312.34;5029340;28;45463;-67
2022/11/08 07:05:34;;;;;;;;;4.00;2.00;;;;;13.87;65.90;100318.78;5029926;28;45280;-67
2022/11/08 07:08:00;;;;;;;;;3.00;3.00;;;;;13.83;66.04;100320.84;5030473;28;45334;-68
2022/11/08 07:10:28;;;;;;;;;2.25;2.25;;;;;13.84;66.18;100324.41;5033363;28;45968;-68
2022/11/08 07:13:11;;;;;;;;;3.00;3.00;;;;;13.79;66.34;100320.25;5033977;28;45361;-68
2022/11/08 07:15:38;;;;;;;;;2.00;2.00;;;;;13.80;66.61;100316.59;5034163;27;45340;-68
2022/11/08 07:18:09;;;;;;;;;2.00;2.00;;;;;13.86;66.35;100325.13;5033017;28;45377;-68
2022/11/08 07:20:35;;;;;;;;;3.75;2.00;;;;;13.84;66.10;100337.81;5033291;28;45319;-68
2022/11/08 07:23:00;;;;;;;;;2.50;2.50;;;;;13.82;66.43;100329.03;5033275;28;45399;-68
2022/11/08 07:25:27;;;;;;;;;2.25;2.25;;;;;13.86;66.37;100327.78;5033375;28;45254;-67
2022/11/08 07:28:01;;;;;;;;;2.75;1.00;;;;;13.89;67.09;100325.75;5033628;28;45392;-68
2022/11/08 07:30:27;;;;;;;;;2.50;2.50;;;;;13.98;66.45;100329.50;5032820;28;45685;-68
2022/11/08 07:32:54;;;;;;;;;4.50;3.25;;;;;13.84;66.73;100292.22;5033378;28;45347;-68
2022/11/08 07:35:20;;;;;;;;;3.00;3.00;;;;;14.10;66.57;100336.56;5033328;28;45405;-68
2022/11/08 07:37:46;;;;;;;;;2.00;2.00;;;;;14.21;66.80;100342.88;5032282;28;45352;-68
2022/11/08 07:40:12;;;;;;;;;3.00;1.25;;;;;14.17;67.16;100322.66;5033229;28;47292;-68
2022/11/08 07:42:38;;;;;;;;;4.00;2.00;;;;;14.26;66.01;100338.00;5033274;28;45261;-67
2022/11/08 07:45:05;;;;;;;;;3.50;1.25;;;;;14.26;66.59;100328.09;5032613;28;45287;-67
2022/11/08 07:47:31;;;;;;;;;3.00;3.00;;;;;14.30;65.89;100344.81;5033347;28;45469;-67
2022/11/08 07:49:56;;;;;;;;;3.50;2.75;;;;;13.94;66.12;100285.13;5032853;28;45575;-66
2022/11/08 07:52:22;;;;;;;;;5.00;3.00;;;;;14.26;65.74;100335.31;5032883;28;45372;-67
2022/11/08 07:54:47;;;;;;;;;2.00;2.00;;;;;14.24;66.05;100318.50;5033190;28;45434;-67
2022/11/08 07:57:12;;;;;;;;;3.00;3.00;;;;;14.28;66.22;100314.59;5031626;28;45547;-68
2022/11/08 07:59:38;;;;;;;;;3.50;2.50;;;;;14.29;65.93;100321.66;5032472;28;47195;-68
2022/11/08 08:02:03;;;;;;;;;3.00;3.00;;;;;14.36;65.59;100330.03;5032640;27;45394;-68
2022/11/08 08:04:29;;;;;;;;;1.75;1.75;;;;;14.39;66.49;100327.97;5033037;28;45599;-68
2022/11/08 08:06:55;;;;;;;;;2.50;2.50;;;;;14.31;65.94;100311.66;5033121;28;45329;-68
2022/11/08 08:09:20;;;;;;;;;1.00;1.00;;;;;14.40;66.17;100315.41;5032977;28;45447;-68
2022/11/08 08:11:45;;;;;;;;;1.00;1.00;;;;;14.37;66.01;100296.88;5032812;28;45467;-67
2022/11/08 08:14:11;;;;;;;;;1.50;1.50;;;;;14.40;65.88;100305.53;5015015;28;45424;-68
2022/11/08 08:16:36;;;;;;;;;2.00;2.00;;;;;14.41;65.63;100290.28;5032623;27;45409;-68
2022/11/08 08:19:02;;;;;;;;;3.75;3.00;;;;;14.44;66.03;100288.19;5032928;28;46390;-68
2022/11/08 08:21:28;;;;;;;;;2.75;2.75;;;;;14.57;65.63;100296.06;5032214;28;45401;-68
2022/11/08 08:23:53;;;;;;;;;2.50;2.50;;;;;14.43;65.74;100256.97;5044835;28;45783;-68
2022/11/08 08:26:18;;;;;;;;;2.00;2.00;;;;;14.68;65.81;100322.06;5051854;28;45330;-68
2022/11/08 08:28:44;;;;;;;;;1.75;1.75;;;;;14.77;65.79;100317.75;5051959;28;46681;-68
2022/11/08 08:31:09;;;;;;;;;1.00;1.00;;;;;14.83;65.37;100333.34;5052803;28;45350;-68
2022/11/08 08:33:36;;;;;;;;;3.00;3.00;;;;;14.94;65.11;100337.81;5052684;27;45283;-68
2022/11/08 08:36:02;;;;;;;;;3.00;3.00;;;;;14.96;65.53;100330.47;5051594;28;45244;-68
2022/11/08 08:38:27;;;;;;;;;2.00;2.00;;;;;15.00;65.84;100337.31;5052536;28;46243;-67
2022/11/08 08:40:53;;;;;;;;;2.75;2.75;;;;;15.14;65.94;100333.44;5052566;28;45414;-67
2022/11/08 08:43:19;;;;;;;;;3.00;3.00;;;;;15.13;65.55;100313.78;5051226;28;45440;-67
2022/11/08 08:45:44;;;;;;;;;3.25;2.00;;;;;15.37;65.43;100346.75;5052397;28;45478;-67
2022/11/08 08:48:09;;;;;;;;;3.50;2.00;;;;;15.43;64.87;100344.38;5052213;27;45405;-67
2022/11/08 08:50:35;;;;;;;;;2.25;2.00;;;;;15.52;65.19;100339.19;5052318;28;45475;-67
2022/11/08 08:53:02;;;;;;;;;1.25;1.25;;;;;15.66;64.73;100313.81;5051074;27;45305;-69
2022/11/08 08:55:28;;;;;;;;;1.25;1.25;;;;;15.86;64.21;100336.28;5052916;28;45292;-68
2022/11/08 08:57:54;;;;;;;;;1.00;1.00;;;;;15.86;64.47;100322.81;5052472;28;46021;-67
2022/11/08 09:00:21;;;;;;;;;2.00;2.00;;;;;16.03;64.55;100327.56;5033932;28;45664;-68
2022/11/08 09:02:46;;;;;;;;;0.50;0.00;;;;;16.17;64.47;100326.34;5032588;27;45411;-67
2022/11/08 09:05:12;;;;;;;;;2.00;2.00;;;;;16.25;63.99;100318.44;5031211;28;45306;-68
2022/11/08 09:07:38;;;;;;;;;3.00;1.75;;;;;16.39;63.69;100329.78;5032363;28;45406;-67
2022/11/08 09:10:05;;;;;;;;;2.50;2.50;;;;;16.50;63.41;100337.72;5032184;28;45520;-67
2022/11/08 09:12:31;;;;;;;;;3.25;2.75;;;;;16.52;63.11;100330.38;5032101;28;45381;-68
2022/11/08 09:14:57;;;;;;;;;2.50;2.50;;;;;16.25;63.56;100307.66;5032422;28;45550;-68
2022/11/08 09:17:23;;;;;;;;;3.00;3.00;;;;;16.36;63.92;100330.91;5032080;28;45642;-68
2022/11/08 09:19:48;;;;;;;;;2.50;1.75;;;;;16.43;64.32;100340.13;5032371;28;45371;-68
2022/11/08 09:22:14;;;;;;;;;1.50;1.50;;;;;16.35;64.04;100326.53;5032102;28;45309;-68
2022/11/08 09:24:39;;;;;;;;;3.00;2.00;;;;;16.40;63.52;100343.09;5032525;27;45331;-68
2022/11/08 09:27:04;;;;;;;;;2.00;2.00;;;;;16.35;64.08;100353.44;5032129;28;45410;-67
2022/11/08 09:29:30;;;;;;;;;3.00;2.00;;;;;16.34;64.23;100367.88;5031871;27;45389;-68
2022/11/08 09:31:56;;;;;;;;;1.00;1.00;;;;;16.31;64.39;100370.84;5031494;28;45314;-68
2022/11/08 09:34:22;;;;;;;;;1.00;1.00;;;;;16.33;64.99;100363.50;5032183;28;45355;-67
2022/11/08 09:36:47;;;;;;;;;1.00;1.00;;;;;16.29;65.09;100368.31;5032184;28;46371;-67
2022/11/08 09:39:13;;;;;;;;;2.25;1.75;;;;;16.26;65.35;100344.38;5014049;28;45412;-66
2022/11/08 09:41:47;;;;;;;;;0.50;0.50;;;;;16.33;64.92;100349.19;5031900;28;45320;-67
2022/11/08 09:44:20;;;;;;;;;1.00;1.00;;;;;16.30;64.57;100323.38;5032090;28;45528;-67
2022/11/08 09:46:56;;;;;;;;;1.00;1.00;;;;;16.36;65.08;100332.75;5031964;28;45675;-67
2022/11/08 09:49:32;;;;;;;;;1.75;1.75;;;;;16.31;65.58;100325.09;5031866;28;45463;-67
2022/11/08 09:51:59;;;;;;;;;1.50;1.50;;;;;16.30;65.64;100340.41;5032134;27;45413;-68
2022/11/08 09:54:46;;;;;;;;;1.75;1.75;;;;;16.43;65.30;100342.81;5031463;28;45469;-67
2022/11/08 09:57:21;;;;;;;;;2.50;1.00;;;;;16.51;65.18;100338.59;5031006;28;45568;-68
2022/11/08 09:59:57;;;;;;;;;2.00;1.00;;;;;16.49;64.98;100327.94;5030648;28;45384;-68
2022/11/08 10:02:23;;;;;;;;;2.00;2.00;;;;;16.62;65.50;100341.16;5030820;28;45513;-67
2022/11/08 10:05:14;;;;;;;;;1.00;1.00;;;;;16.78;64.64;100329.84;5031529;28;45384;-68
2022/11/08 10:08:02;;;;;;;;;1.00;1.00;;;;;16.86;64.87;100345.25;5033752;27;45944;-66
2022/11/08 10:10:36;;;;;;;;;2.00;2.00;;;;;17.07;64.51;100343.34;5030812;28;45373;-67
2022/11/08 10:13:25;;;;;;;;;3.00;2.00;;;;;17.19;64.25;100351.25;5031120;28;45468;-67
2022/11/08 10:16:27;;;;;;;;;3.50;2.50;;;;;17.37;63.89;100341.44;5031324;28;45416;-68
2022/11/08 10:19:43;;;;;;;;;4.67;2.00;;;;;17.63;63.49;100346.19;5013047;28;48460;-67
2022/11/08 10:22:18;;;;;;;;;4.33;1.67;;;;;17.75;62.53;100346.88;5051747;28;45413;-67
2022/11/08 10:24:59;;;;;;;;;5.75;3.00;;;;;17.86;62.51;100335.91;5051701;28;45444;-67
2022/11/08 10:27:36;;;;;;;;;3.00;2.00;;;;;17.97;61.72;100338.41;5051921;28;45615;-66
2022/11/08 10:30:08;;;;;;;;;1.00;1.00;;;;;17.63;62.36;100287.72;5051678;28;48474;-67
2022/11/08 10:32:35;;;;;;;;;5.00;5.00;;;;;18.01;61.35;100333.59;5051776;28;45350;-67
2022/11/08 10:35:00;;;;;;;;;3.75;3.75;;;;;18.11;61.70;100329.00;5051424;28;45415;-67
2022/11/08 10:37:28;;;;;;;;;7.75;5.25;;;;;18.06;61.44;100308.84;5051643;28;45484;-68
2022/11/08 10:39:59;;;;;;;;;2.00;2.00;;;;;18.31;61.37;100331.56;5051178;28;45936;-67
2022/11/08 10:42:45;;;;;;;;;4.00;2.75;;;;;18.32;61.12;100330.59;5051342;28;45464;-68
2022/11/08 10:45:11;;;;;;;;;1.67;1.67;;;;;18.36;60.74;100321.19;5055168;28;45528;-66
2022/11/08 10:47:38;;;;;;;;;2.33;2.33;;;;;18.52;61.42;100331.31;5054535;28;45401;-68
2022/11/08 10:50:16;;;;;;;;;2.00;2.00;;;;;18.58;61.43;100319.03;5055058;28;46458;-68
2022/11/08 10:53:00;;;;;;;;;2.50;2.50;;;;;18.76;60.16;100333.41;5054851;28;45340;-67
2022/11/08 10:55:37;;;;;;;;;2.00;2.00;;;;;18.82;60.34;100311.16;5054732;28;45440;-68
2022/11/08 10:58:03;;;;;;;;;2.33;2.33;;;;;18.72;61.39;100286.09;5041913;28;45426;-68
2022/11/08 11:00:31;;;;;;;;;1.33;1.33;;;;;19.07;61.12;100324.06;5033303;28;46629;-67
2022/11/08 11:03:09;;;;;;;;;2.33;2.33;;;;;19.05;60.29;100316.09;5033651;28;45328;-66
2022/11/08 11:05:39;;;;;;;;;2.00;2.00;;;;;19.01;60.42;100319.28;5033748;28;45396;-67
2022/11/08 11:08:14;;;;;;;;;2.67;1.67;;;;;18.88;60.71;100317.84;5033305;28;45437;-67
2022/11/08 11:10:45;;;;;;;;;1.00;1.00;;;;;18.88;61.50;100300.72;5032894;28;45698;-68
2022/11/08 11:13:18;;;;;;;;;2.00;2.00;;;;;18.83;61.51;100301.22;5014760;28;45573;-67
2022/11/08 11:15:52;;;;;;;;;2.75;2.50;;;;;18.83;61.56;100312.03;5032757;28;45399;-67
2022/11/08 11:18:26;;;;;;;;;2.75;2.75;;;;;18.80;62.11;100313.19;5031310;28;45487;-67
2022/11/08 11:21:17;;;;;;;;;3.25;2.25;;;;;18.72;61.77;100304.13;5033193;28;48289;-67
2022/11/08 11:23:48;;;;;;;;;2.00;2.00;;;;;18.64;62.63;100270.66;5033212;27;45446;-67
2022/11/08 11:26:31;;;;;;;;;2.50;2.50;;;;;18.78;62.35;100303.53;5033806;28;45219;-67
2022/11/08 11:29:05;;;;;;;;;2.00;2.00;;;;;18.69;62.52;100305.28;5033429;27;45424;-68
2022/11/08 11:31:39;;;;;;;;;0.67;0.67;;;;;18.58;62.90;100303.66;5033376;27;45958;-69
2022/11/08 11:35:03;;;;;;;;;1.00;1.00;;;;;18.58;62.93;100289.31;5015395;28;45317;-66
2022/11/08 11:37:37;;;;;;;;;3.00;2.00;;;;;18.72;63.13;100288.78;4971328;28;45417;-66
2022/11/08 11:40:13;;;;;;;;;3.00;3.00;;;;;18.60;63.40;100271.97;4971532;28;45410;-66
2022/11/08 11:42:45;;;;;;;;;2.67;2.67;;;;;19.05;62.45;100321.50;4971281;28;46478;-67
2022/11/08 11:45:28;;;;;;;;;4.33;2.00;;;;;19.06;62.69;100323.22;4970178;28;45425;-66
2022/11/08 11:47:56;;;;;;;;;1.67;1.67;;;;;19.06;62.93;100309.72;4981202;28;45780;-67
2022/11/08 11:50:33;;;;;;;;;2.00;2.00;;;;;19.05;62.68;100302.59;5053517;28;45299;-67